Time;durP1;ratioP1;P1;durP2;ratioP2;P2;SDS_P1;SDS_P2;PMS_P1;PMS_P2;Temp;Humidity;BMP_temperature;BMP_pressure;BME280_temperature;BME280_humidity;BME280_pressure;Samples;Min_cycle;Max_cycle;Signal;HPM_P1;HPM_P2
2023/08/04 00:01:25;;;;;;;;;;;;;;;;;;7367743;19;1904;-62
2023/08/04 00:03:54;;;;;;;;;;;;;;;;;;7369068;19;1876;-61
2023/08/04 00:06:22;;;;;;;;;;;;;;;;;;7371919;19;1475;-62
2023/08/04 00:08:50;;;;;;;;;;;;;;;;;;7366922;19;790;-62
2023/08/04 00:11:18;;;;;;;;;;;;;;;;;;7367108;19;1660;-62
2023/08/04 00:13:46;;;;;;;;;;;;;;;;;;7370803;19;1389;-62
2023/08/04 00:16:14;;;;;;;;;;;;;;;;;;7370941;19;1707;-61
2023/08/04 00:18:43;;;;;;;;;;;;;;;;;;7371106;19;2121;-62
2023/08/04 00:21:11;;;;;;;;;;;;;;;;;;7368557;19;1848;-62
2023/08/04 00:23:39;;;;;;;;;;;;;;;;;;7367760;19;2161;-61
2023/08/04 00:26:07;;;;;;;;;;;;;;;;;;7371117;19;1658;-61
2023/08/04 00:28:35;;;;;;;;;;;;;;;;;;7365001;19;816;-60
2023/08/04 00:31:03;;;;;;;;;;;;;;;;;;7367108;19;1744;-56
2023/08/04 00:33:31;;;;;;;;;;;;;;;;;;7370165;19;1798;-60
2023/08/04 00:35:59;;;;;;;;;;;;;;;;;;7368197;19;1444;-61
2023/08/04 00:38:28;;;;;;;;;;;;;;;;;;7367767;19;1685;-62
2023/08/04 00:40:56;;;;;;;;;;;;;;;;;;7365617;19;1694;-62
2023/08/04 00:43:24;;;;;;;;;;;;;;;;;;7365530;19;2002;-62
2023/08/04 00:45:52;;;;;;;;;;;;;;;;;;7368208;19;1527;-62
2023/08/04 00:48:20;;;;;;;;;;;;;;;;;;7362727;19;1625;-60
2023/08/04 00:50:48;;;;;;;;;;;;;;;;;;7364849;19;1817;-58
2023/08/04 00:53:16;;;;;;;;;;;;;;;;;;7365871;19;2098;-61
2023/08/04 00:55:44;;;;;;;;;;;;;;;;;;7366667;19;2161;-61
2023/08/04 00:58:13;;;;;;;;;;;;;;;;;;7367404;19;1741;-59
2023/08/04 01:00:41;;;;;;;;;;;;;;;;;;7366383;19;1474;-59
2023/08/04 01:03:09;;;;;;;;;;;;;;;;;;7367676;19;1854;-57
2023/08/04 01:05:38;;;;;;;;;;;;;;;;;;7368117;19;1716;-56
2023/08/04 01:08:06;;;;;;;;;;;;;;;;;;7369739;19;1480;-59
2023/08/04 01:10:34;;;;;;;;;;;;;;;;;;7364154;19;1357;-59
2023/08/04 01:13:02;;;;;;;;;;;;;;;;;;7367117;19;1695;-59
2023/08/04 01:15:30;;;;;;;;;;;;;;;;;;7368714;19;1537;-58
2023/08/04 01:17:58;;;;;;;;;;;;;;;;;;7368397;19;1722;-60
2023/08/04 01:20:26;;;;;;;;;;;;;;;;;;7364948;19;1854;-57
2023/08/04 01:22:55;;;;;;;;;;;;;;;;;;7369415;19;1849;-61
2023/08/04 01:25:24;;;;;;;;;;;;;;;;;;7364759;19;821;-60
2023/08/04 01:27:52;;;;;;;;;;;;;;;;;;7364148;19;2061;-60
2023/08/04 01:30:20;;;;;;;;;;;;;;;;;;7365355;19;1634;-61
2023/08/04 01:32:48;;;;;;;;;;;;;;;;;;7366990;19;1519;-63
2023/08/04 01:35:16;;;;;;;;;;;;;;;;;;7364101;19;1818;-62
2023/08/04 01:37:45;;;;;;;;;;;;;;;;;;7367804;19;1348;-61
2023/08/04 01:40:13;;;;;;;;;;;;;;;;;;7366013;19;1594;-60
2023/08/04 01:42:42;;;;;;;;;;;;;;;;;;7366797;19;1621;-62
2023/08/04 01:45:10;;;;;;;;;;;;;;;;;;7363744;19;1868;-61
2023/08/04 01:47:38;;;;;;;;;;;;;;;;;;7365565;19;1726;-61
2023/08/04 01:50:06;;;;;;;;;;;;;;;;;;7364862;19;1660;-63
2023/08/04 01:52:36;;;;;;;;;;;;;;;;;;7368302;19;1602;-60
2023/08/04 01:55:04;;;;;;;;;;;;;;;;;;7367045;19;1778;-61
2023/08/04 01:57:32;;;;;;;;;;;;;;;;;;7367360;19;1690;-60
2023/08/04 02:00:01;;;;;;;;;;;;;;;;;;7368340;19;1747;-59
2023/08/04 02:02:29;;;;;;;;;;;;;;;;;;7375964;19;1205;-59
2023/08/04 02:05:00;;;;;;;;;;;;;;;;;;7372160;19;2087;-62
2023/08/04 02:07:28;;;;;;;;;;;;;;;;;;7375194;19;1473;-61
2023/08/04 02:09:56;;;;;;;;;;;;;;;;;;7367572;19;2141;-60
2023/08/04 02:12:24;;;;;;;;;;;;;;;;;;7373055;19;1748;-58
2023/08/04 02:14:52;;;;;;;;;;;;;;;;;;7374082;19;1519;-60
2023/08/04 02:17:20;;;;;;;;;;;;;;;;;;7369221;19;894;-57
2023/08/04 02:19:49;;;;;;;;;;;;;;;;;;7369437;19;1667;-62
2023/08/04 02:22:17;;;;;;;;;;;;;;;;;;7373203;19;1691;-63
2023/08/04 02:24:45;;;;;;;;;;;;;;;;;;7368909;19;1860;-63
2023/08/04 02:27:14;;;;;;;;;;;;;;;;;;7370520;19;795;-63
2023/08/04 02:29:42;;;;;;;;;;;;;;;;;;7369087;19;2019;-62
2023/08/04 02:32:12;;;;;;;;;;;;;;;;;;7372188;19;1693;-61
2023/08/04 02:34:40;;;;;;;;;;;;;;;;;;7369826;19;864;-64
2023/08/04 02:37:08;;;;;;;;;;;;;;;;;;7368041;19;1620;-62
2023/08/04 02:39:36;;;;;;;;;;;;;;;;;;7371654;19;1814;-64
2023/08/04 02:42:05;;;;;;;;;;;;;;;;;;7372960;19;1547;-61
2023/08/04 02:44:33;;;;;;;;;;;;;;;;;;7371631;19;1981;-60
2023/08/04 02:47:01;;;;;;;;;;;;;;;;;;7371098;19;1687;-61
2023/08/04 02:49:29;;;;;;;;;;;;;;;;;;7370233;19;1680;-59
2023/08/04 02:51:57;;;;;;;;;;;;;;;;;;7371406;19;1660;-60
2023/08/04 02:54:25;;;;;;;;;;;;;;;;;;7373758;19;1642;-60
2023/08/04 02:56:53;;;;;;;;;;;;;;;;;;7367846;19;838;-62
2023/08/04 02:59:21;;;;;;;;;;;;;;;;;;7369949;19;2079;-62
2023/08/04 03:01:50;;;;;;;;;;;;;;;;;;7370785;19;1508;-62
2023/08/04 03:04:18;;;;;;;;;;;;;;;;;;7370872;19;1859;-62
2023/08/04 03:06:46;;;;;;;;;;;;;;;;;;7370579;19;2087;-62
2023/08/04 03:09:14;;;;;;;;;;;;;;;;;;7370140;19;1607;-61
2023/08/04 03:11:42;;;;;;;;;;;;;;;;;;7372426;19;1768;-58
2023/08/04 03:14:10;;;;;;;;;;;;;;;;;;7373307;19;1701;-59
2023/08/04 03:16:38;;;;;;;;;;;;;;;;;;7371663;19;1803;-62
2023/08/04 03:19:07;;;;;;;;;;;;;;;;;;7371486;19;2000;-61
2023/08/04 03:21:35;;;;;;;;;;;;;;;;;;7370307;19;1616;-62
2023/08/04 03:24:03;;;;;;;;;;;;;;;;;;7372426;19;1850;-62
2023/08/04 03:26:31;;;;;;;;;;;;;;;;;;7371807;19;1839;-62
2023/08/04 03:28:59;;;;;;;;;;;;;;;;;;7371508;19;1748;-62
2023/08/04 03:31:27;;;;;;;;;;;;;;;;;;7367635;19;2047;-61
2023/08/04 03:33:55;;;;;;;;;;;;;;;;;;7371595;19;1510;-62
2023/08/04 03:36:24;;;;;;;;;;;;;;;;;;7371545;19;1669;-62
2023/08/04 03:38:52;;;;;;;;;;;;;;;;;;7370381;19;1461;-62
2023/08/04 03:41:20;;;;;;;;;;;;;;;;;;7368450;19;1989;-62
2023/08/04 03:43:48;;;;;;;;;;;;;;;;;;7367515;19;1855;-62
2023/08/04 03:46:16;;;;;;;;;;;;;;;;;;7369474;19;1657;-64
2023/08/04 03:48:44;;;;;;;;;;;;;;;;;;7368880;19;1834;-59
2023/08/04 03:51:13;;;;;;;;;;;;;;;;;;7367807;19;1645;-63
2023/08/04 03:53:41;;;;;;;;;;;;;;;;;;7372057;19;1279;-61
2023/08/04 03:56:09;;;;;;;;;;;;;;;;;;7368067;19;943;-62
2023/08/04 03:58:37;;;;;;;;;;;;;;;;;;7367962;19;836;-61
2023/08/04 04:01:05;;;;;;;;;;;;;;;;;;7367396;19;1785;-62
2023/08/04 04:03:34;;;;;;;;;;;;;;;;;;7371164;19;1843;-57
2023/08/04 04:06:02;;;;;;;;;;;;;;;;;;7366394;19;1837;-55
2023/08/04 04:08:30;;;;;;;;;;;;;;;;;;7370268;19;2169;-61
2023/08/04 04:10:58;;;;;;;;;;;;;;;;;;7367726;19;1816;-61
2023/08/04 04:13:26;;;;;;;;;;;;;;;;;;7370357;19;1782;-62
2023/08/04 04:15:54;;;;;;;;;;;;;;;;;;7366794;19;1702;-62
2023/08/04 04:18:22;;;;;;;;;;;;;;;;;;7370311;19;1379;-62
2023/08/04 04:20:51;;;;;;;;;;;;;;;;;;7366481;19;1688;-62
2023/08/04 04:23:19;;;;;;;;;;;;;;;;;;7369691;19;1480;-63
2023/08/04 04:25:47;;;;;;;;;;;;;;;;;;7364788;19;1867;-63
2023/08/04 04:28:15;;;;;;;;;;;;;;;;;;7366937;19;1400;-62
2023/08/04 04:30:43;;;;;;;;;;;;;;;;;;7366929;19;1912;-62
2023/08/04 04:33:11;;;;;;;;;;;;;;;;;;7370076;19;1796;-62
2023/08/04 04:35:40;;;;;;;;;;;;;;;;;;7369885;19;1666;-60
2023/08/04 04:38:08;;;;;;;;;;;;;;;;;;7365919;19;1939;-56
2023/08/04 04:40:36;;;;;;;;;;;;;;;;;;7369102;19;1549;-59
2023/08/04 04:43:04;;;;;;;;;;;;;;;;;;7372301;19;1592;-56
2023/08/04 04:45:32;;;;;;;;;;;;;;;;;;7365727;19;1846;-60
2023/08/04 04:48:00;;;;;;;;;;;;;;;;;;7367441;19;860;-59
2023/08/04 04:50:28;;;;;;;;;;;;;;;;;;7364791;19;2067;-60
2023/08/04 04:52:56;;;;;;;;;;;;;;;;;;7366970;19;799;-58
2023/08/04 04:55:25;;;;;;;;;;;;;;;;;;7368469;19;1734;-60
2023/08/04 04:57:53;;;;;;;;;;;;;;;;;;7369933;19;1647;-60
2023/08/04 05:00:21;;;;;;;;;;;;;;;;;;7370324;19;1523;-60
2023/08/04 05:02:49;;;;;;;;;;;;;;;;;;7367575;19;775;-63
2023/08/04 05:05:17;;;;;;;;;;;;;;;;;;7368508;19;1841;-63
2023/08/04 05:07:45;;;;;;;;;;;;;;;;;;7370176;19;1661;-67
2023/08/04 05:10:13;;;;;;;;;;;;;;;;;;7365508;19;1511;-62
2023/08/04 05:12:42;;;;;;;;;;;;;;;;;;7366871;19;1674;-62
2023/08/04 05:15:10;;;;;;;;;;;;;;;;;;7367574;19;1883;-62
2023/08/04 05:17:38;;;;;;;;;;;;;;;;;;7366881;19;886;-62
2023/08/04 05:20:06;;;;;;;;;;;;;;;;;;7364579;19;1629;-62
2023/08/04 05:22:35;;;;;;;;;;;;;;;;;;7368291;19;1366;-60
2023/08/04 05:25:03;;;;;;;;;;;;;;;;;;7363945;19;1845;-62
2023/08/04 05:27:31;;;;;;;;;;;;;;;;;;7364879;19;1682;-61
2023/08/04 05:30:00;;;;;;;;;;;;;;;;;;7368081;19;1498;-62
2023/08/04 05:32:28;;;;;;;;;;;;;;;;;;7370112;19;1312;-63
2023/08/04 05:34:56;;;;;;;;;;;;;;;;;;7371685;19;1869;-65
2023/08/04 05:37:24;;;;;;;;;;;;;;;;;;7375858;19;1457;-63
2023/08/04 05:39:52;;;;;;;;;;;;;;;;;;7370361;19;1727;-64
2023/08/04 05:42:21;;;;;;;;;;;;;;;;;;7375484;19;1481;-62
2023/08/04 05:44:49;;;;;;;;;;;;;;;;;;7370421;19;1845;-61
2023/08/04 05:47:17;;;;;;;;;;;;;;;;;;7373842;19;2062;-62
2023/08/04 05:49:47;;;;;;;;;;;;;;;;;;7373274;19;1912;-62
2023/08/04 05:52:15;;;;;;;;;;;;;;;;;;7374339;19;2067;-62
2023/08/04 05:54:43;;;;;;;;;;;;;;;;;;7373345;19;1610;-62
2023/08/04 05:57:11;;;;;;;;;;;;;;;;;;7374151;19;1809;-62
2023/08/04 05:59:40;;;;;;;;;;;;;;;;;;7371644;19;1815;-62
2023/08/04 06:02:08;;;;;;;;;;;;;;;;;;7375497;19;1872;-61
2023/08/04 06:04:36;;;;;;;;;;;;;;;;;;7372940;19;1865;-62
2023/08/04 06:07:04;;;;;;;;;;;;;;;;;;7373410;19;1857;-61
2023/08/04 06:09:32;;;;;;;;;;;;;;;;;;7375055;19;1797;-63
2023/08/04 06:12:00;;;;;;;;;;;;;;;;;;7376114;19;1887;-63
2023/08/04 06:14:28;;;;;;;;;;;;;;;;;;7372116;19;1834;-61
2023/08/04 06:16:56;;;;;;;;;;;;;;;;;;7373746;19;1718;-61
2023/08/04 06:19:25;;;;;;;;;;;;;;;;;;7372891;19;1809;-62
2023/08/04 06:21:53;;;;;;;;;;;;;;;;;;7375220;19;1554;-62
2023/08/04 06:24:21;;;;;;;;;;;;;;;;;;7374340;19;1857;-62
2023/08/04 06:26:49;;;;;;;;;;;;;;;;;;7373484;19;1579;-60
2023/08/04 06:29:17;;;;;;;;;;;;;;;;;;7373735;19;1617;-62
2023/08/04 06:31:45;;;;;;;;;;;;;;;;;;7375546;19;1878;-60
2023/08/04 06:34:14;;;;;;;;;;;;;;;;;;7375565;19;1613;-60
2023/08/04 06:36:42;;;;;;;;;;;;;;;;;;7375087;19;1473;-64
2023/08/04 06:39:10;;;;;;;;;;;;;;;;;;7369471;19;1266;-61
2023/08/04 06:41:38;;;;;;;;;;;;;;;;;;7374372;19;1585;-58
2023/08/04 06:44:06;;;;;;;;;;;;;;;;;;7373284;19;1769;-62
2023/08/04 06:46:34;;;;;;;;;;;;;;;;;;7367870;19;1841;-61
2023/08/04 06:49:03;;;;;;;;;;;;;;;;;;7369557;19;909;-61
2023/08/04 06:51:32;;;;;;;;;;;;;;;;;;7370056;19;811;-61
2023/08/04 06:54:00;;;;;;;;;;;;;;;;;;7368151;19;1890;-61
2023/08/04 06:56:28;;;;;;;;;;;;;;;;;;7372187;19;1472;-60
2023/08/04 06:58:56;;;;;;;;;;;;;;;;;;7369329;19;1667;-61
2023/08/04 07:01:24;;;;;;;;;;;;;;;;;;7369558;19;1792;-61
2023/08/04 07:03:52;;;;;;;;;;;;;;;;;;7374209;19;1894;-61
2023/08/04 07:06:20;;;;;;;;;;;;;;;;;;7371997;19;1842;-61
2023/08/04 07:08:49;;;;;;;;;;;;;;;;;;7369723;19;755;-60
2023/08/04 07:11:17;;;;;;;;;;;;;;;;;;7367495;19;1710;-61
2023/08/04 07:13:45;;;;;;;;;;;;;;;;;;7371907;19;1477;-61
2023/08/04 07:16:13;;;;;;;;;;;;;;;;;;7366618;19;830;-60
2023/08/04 07:18:42;;;;;;;;;;;;;;;;;;7369465;19;882;-61
2023/08/04 07:21:10;;;;;;;;;;;;;;;;;;7368170;19;1277;-60
2023/08/04 07:23:38;;;;;;;;;;;;;;;;;;7369859;19;783;-62
2023/08/04 07:26:06;;;;;;;;;;;;;;;;;;7367260;19;1839;-62
2023/08/04 07:28:35;;;;;;;;;;;;;;;;;;7368655;19;855;-62
2023/08/04 07:31:03;;;;;;;;;;;;;;;;;;7367292;19;1310;-62
2023/08/04 07:33:31;;;;;;;;;;;;;;;;;;7368828;19;1765;-61
2023/08/04 07:35:59;;;;;;;;;;;;;;;;;;7366828;19;2066;-57
2023/08/04 07:38:27;;;;;;;;;;;;;;;;;;7370367;19;1825;-59
2023/08/04 07:40:55;;;;;;;;;;;;;;;;;;7371682;19;1801;-63
2023/08/04 07:43:24;;;;;;;;;;;;;;;;;;7371508;19;1979;-63
2023/08/04 07:45:53;;;;;;;;;;;;;;;;;;7370615;19;1850;-60
2023/08/04 07:48:21;;;;;;;;;;;;;;;;;;7369546;19;1926;-64
2023/08/04 07:50:50;;;;;;;;;;;;;;;;;;7365498;19;1788;-62
2023/08/04 07:53:18;;;;;;;;;;;;;;;;;;7371407;19;1707;-62
2023/08/04 07:55:46;;;;;;;;;;;;;;;;;;7370154;19;1658;-62
2023/08/04 07:58:14;;;;;;;;;;;;;;;;;;7371349;19;1656;-62
2023/08/04 08:00:43;;;;;;;;;;;;;;;;;;7368324;19;1725;-62
2023/08/04 08:03:11;;;;;;;;;;;;;;;;;;7372668;19;1480;-62
2023/08/04 08:05:39;;;;;;;;;;;;;;;;;;7369426;19;1845;-63
2023/08/04 08:08:07;;;;;;;;;;;;;;;;;;7370684;19;1674;-63
2023/08/04 08:10:36;;;;;;;;;;;;;;;;;;7366314;19;1267;-62
2023/08/04 08:13:04;;;;;;;;;;;;;;;;;;7369416;19;1174;-59
2023/08/04 08:15:33;;;;;;;;;;;;;;;;;;7372649;19;1764;-63
2023/08/04 08:18:01;;;;;;;;;;;;;;;;;;7371222;19;1606;-63
2023/08/04 08:20:29;;;;;;;;;;;;;;;;;;7369893;19;2004;-64
2023/08/04 08:22:57;;;;;;;;;;;;;;;;;;7373176;19;1735;-63
2023/08/04 08:25:25;;;;;;;;;;;;;;;;;;7368626;19;1861;-62
2023/08/04 08:27:55;;;;;;;;;;;;;;;;;;7371849;19;1764;-62
2023/08/04 08:30:23;;;;;;;;;;;;;;;;;;7369213;19;1533;-63
2023/08/04 08:32:51;;;;;;;;;;;;;;;;;;7372176;19;1774;-63
2023/08/04 08:35:19;;;;;;;;;;;;;;;;;;7368218;19;2042;-62
2023/08/04 08:37:47;;;;;;;;;;;;;;;;;;7372197;19;1912;-63
2023/08/04 08:40:15;;;;;;;;;;;;;;;;;;7367283;19;1697;-63
2023/08/04 08:42:44;;;;;;;;;;;;;;;;;;7370346;19;1784;-63
2023/08/04 08:45:12;;;;;;;;;;;;;;;;;;7371909;19;1855;-62
2023/08/04 08:47:40;;;;;;;;;;;;;;;;;;7367597;19;861;-61
2023/08/04 08:50:08;;;;;;;;;;;;;;;;;;7365332;19;1275;-63
2023/08/04 08:52:36;;;;;;;;;;;;;;;;;;7367521;19;842;-63
2023/08/04 08:55:04;;;;;;;;;;;;;;;;;;7370050;19;1682;-63
2023/08/04 08:57:33;;;;;;;;;;;;;;;;;;7372074;19;1511;-62
2023/08/04 09:00:01;;;;;;;;;;;;;;;;;;7365250;19;1734;-62
2023/08/04 09:02:29;;;;;;;;;;;;;;;;;;7371598;19;1458;-63
2023/08/04 09:04:57;;;;;;;;;;;;;;;;;;7368544;19;849;-63
2023/08/04 09:07:25;;;;;;;;;;;;;;;;;;7363830;19;1837;-62
2023/08/04 09:09:54;;;;;;;;;;;;;;;;;;7363911;19;1270;-61
2023/08/04 09:12:24;;;;;;;;;;;;;;;;;;7367058;19;779;-61
2023/08/04 09:14:52;;;;;;;;;;;;;;;;;;7370334;19;1098;-60
2023/08/04 09:17:21;;;;;;;;;;;;;;;;;;7367528;19;1038;-62
2023/08/04 09:19:49;;;;;;;;;;;;;;;;;;7364841;19;1285;-63
2023/08/04 09:22:17;;;;;;;;;;;;;;;;;;7366575;19;819;-61
2023/08/04 09:24:45;;;;;;;;;;;;;;;;;;7366660;19;851;-61
2023/08/04 09:27:13;;;;;;;;;;;;;;;;;;7363293;19;1854;-61
2023/08/04 09:29:41;;;;;;;;;;;;;;;;;;7364958;19;1250;-62
2023/08/04 09:32:10;;;;;;;;;;;;;;;;;;7365740;19;829;-62
2023/08/04 09:34:38;;;;;;;;;;;;;;;;;;7365537;19;878;-62
2023/08/04 09:37:06;;;;;;;;;;;;;;;;;;7366600;19;872;-62
2023/08/04 09:39:34;;;;;;;;;;;;;;;;;;7364039;19;1254;-63
2023/08/04 09:42:02;;;;;;;;;;;;;;;;;;7366795;19;908;-62
2023/08/04 09:44:30;;;;;;;;;;;;;;;;;;7366243;19;801;-61
2023/08/04 09:46:58;;;;;;;;;;;;;;;;;;7363572;19;1841;-62
2023/08/04 09:49:27;;;;;;;;;;;;;;;;;;7364083;19;1289;-57
2023/08/04 09:51:56;;;;;;;;;;;;;;;;;;7365459;19;849;-61
2023/08/04 09:54:24;;;;;;;;;;;;;;;;;;7365258;19;822;-62
2023/08/04 09:56:55;;;;;;;;;;;;;;;;;;7363223;19;835;-62
2023/08/04 09:59:23;;;;;;;;;;;;;;;;;;7362875;19;1397;-62
2023/08/04 10:01:52;;;;;;;;;;;;;;;;;;7364773;19;791;-62
2023/08/04 10:04:20;;;;;;;;;;;;;;;;;;7366248;19;841;-61
2023/08/04 10:06:48;;;;;;;;;;;;;;;;;;7363010;19;1829;-62
2023/08/04 10:09:16;;;;;;;;;;;;;;;;;;7363565;19;1282;-62
2023/08/04 10:11:45;;;;;;;;;;;;;;;;;;7364464;19;720;-62
2023/08/04 10:14:13;;;;;;;;;;;;;;;;;;7364497;19;830;-62
2023/08/04 10:16:41;;;;;;;;;;;;;;;;;;7364196;19;1520;-62
2023/08/04 10:19:09;;;;;;;;;;;;;;;;;;7367381;19;1469;-62
2023/08/04 10:21:38;;;;;;;;;;;;;;;;;;7371839;19;1995;-62
2023/08/04 10:24:07;;;;;;;;;;;;;;;;;;7375014;19;1407;-62
2023/08/04 10:26:35;;;;;;;;;;;;;;;;;;7369397;19;1896;-63
2023/08/04 10:29:03;;;;;;;;;;;;;;;;;;7373485;19;1481;-63
2023/08/04 10:31:32;;;;;;;;;;;;;;;;;;7371833;19;1615;-61
2023/08/04 10:34:00;;;;;;;;;;;;;;;;;;7373427;19;1510;-63
2023/08/04 10:36:28;;;;;;;;;;;;;;;;;;7372927;19;2060;-63
2023/08/04 10:38:58;;;;;;;;;;;;;;;;;;7371022;19;1852;-62
2023/08/04 10:41:26;;;;;;;;;;;;;;;;;;7372055;19;1599;-62
2023/08/04 10:43:54;;;;;;;;;;;;;;;;;;7372182;19;1165;-62
2023/08/04 10:46:22;;;;;;;;;;;;;;;;;;7370289;19;1851;-63
2023/08/04 10:48:50;;;;;;;;;;;;;;;;;;7370886;19;1671;-62
2023/08/04 10:51:20;;;;;;;;;;;;;;;;;;7369164;19;1743;-61
2023/08/04 10:53:48;;;;;;;;;;;;;;;;;;7373363;19;1725;-62
2023/08/04 10:56:16;;;;;;;;;;;;;;;;;;7370493;19;1711;-62
2023/08/04 10:58:44;;;;;;;;;;;;;;;;;;7370133;19;1742;-62
2023/08/04 11:01:12;;;;;;;;;;;;;;;;;;7372077;19;1398;-63
2023/08/04 11:03:41;;;;;;;;;;;;;;;;;;7370914;19;809;-61
2023/08/04 11:06:09;;;;;;;;;;;;;;;;;;7370042;19;1830;-62
2023/08/04 11:08:37;;;;;;;;;;;;;;;;;;7370559;19;846;-62
2023/08/04 11:11:05;;;;;;;;;;;;;;;;;;7370586;19;1357;-62
2023/08/04 11:13:33;;;;;;;;;;;;;;;;;;7370571;19;811;-62
2023/08/04 11:16:02;;;;;;;;;;;;;;;;;;7371788;19;894;-61
2023/08/04 11:18:31;;;;;;;;;;;;;;;;;;7369518;19;960;-63
2023/08/04 11:20:59;;;;;;;;;;;;;;;;;;7369579;19;1282;-62
2023/08/04 11:23:28;;;;;;;;;;;;;;;;;;7371845;19;2055;-62
2023/08/04 11:25:56;;;;;;;;;;;;;;;;;;7370986;19;1862;-62
2023/08/04 11:28:24;;;;;;;;;;;;;;;;;;7372910;19;2007;-62
2023/08/04 11:30:53;;;;;;;;;;;;;;;;;;7369979;19;1307;-61
2023/08/04 11:33:21;;;;;;;;;;;;;;;;;;7371641;19;1706;-61
2023/08/04 11:35:49;;;;;;;;;;;;;;;;;;7371611;19;1980;-61
2023/08/04 11:38:17;;;;;;;;;;;;;;;;;;7372832;19;1456;-62
2023/08/04 11:40:45;;;;;;;;;;;;;;;;;;7366761;19;1349;-62
2023/08/04 11:43:13;;;;;;;;;;;;;;;;;;7367708;19;1704;-61
2023/08/04 11:45:41;;;;;;;;;;;;;;;;;;7372562;19;1793;-61
2023/08/04 11:48:09;;;;;;;;;;;;;;;;;;7369210;19;1842;-63
2023/08/04 11:50:38;;;;;;;;;;;;;;;;;;7366499;19;1346;-60
2023/08/04 11:53:06;;;;;;;;;;;;;;;;;;7371090;19;1816;-61
2023/08/04 11:55:34;;;;;;;;;;;;;;;;;;7373008;19;1438;-61
2023/08/04 11:58:02;;;;;;;;;;;;;;;;;;7368368;19;878;-62
2023/08/04 12:00:30;;;;;;;;;;;;;;;;;;7367709;19;1667;-63
2023/08/04 12:02:58;;;;;;;;;;;;;;;;;;7372006;19;1454;-61
2023/08/04 12:05:27;;;;;;;;;;;;;;;;;;7368761;19;858;-61
2023/08/04 12:07:56;;;;;;;;;;;;;;;;;;7366258;19;1826;-63
2023/08/04 12:10:24;;;;;;;;;;;;;;;;;;7367597;19;1733;-63
2023/08/04 12:12:52;;;;;;;;;;;;;;;;;;7371089;19;1682;-59
2023/08/04 12:15:20;;;;;;;;;;;;;;;;;;7368858;19;1735;-62
2023/08/04 12:17:48;;;;;;;;;;;;;;;;;;7371353;19;1715;-63
2023/08/04 12:20:16;;;;;;;;;;;;;;;;;;7366393;19;1290;-64
2023/08/04 12:22:44;;;;;;;;;;;;;;;;;;7369652;19;2054;-63
2023/08/04 12:25:12;;;;;;;;;;;;;;;;;;7372603;19;1438;-64
2023/08/04 12:27:41;;;;;;;;;;;;;;;;;;7364718;19;1846;-62
2023/08/04 12:30:09;;;;;;;;;;;;;;;;;;7366551;19;1294;-62
2023/08/04 12:32:37;;;;;;;;;;;;;;;;;;7368545;19;1016;-63
2023/08/04 12:35:06;;;;;;;;;;;;;;;;;;7369108;19;866;-63
2023/08/04 12:37:34;;;;;;;;;;;;;;;;;;7368658;19;811;-60
2023/08/04 12:40:03;;;;;;;;;;;;;;;;;;7366478;19;1282;-61
2023/08/04 12:42:31;;;;;;;;;;;;;;;;;;7367324;19;894;-64
2023/08/04 12:44:59;;;;;;;;;;;;;;;;;;7368032;19;772;-61
2023/08/04 12:47:27;;;;;;;;;;;;;;;;;;7366304;19;1839;-60
2023/08/04 12:49:55;;;;;;;;;;;;;;;;;;7365830;19;1337;-64
2023/08/04 12:52:24;;;;;;;;;;;;;;;;;;7367130;19;881;-64
2023/08/04 12:54:52;;;;;;;;;;;;;;;;;;7366916;19;851;-62
2023/08/04 12:57:20;;;;;;;;;;;;;;;;;;7367617;19;818;-63
2023/08/04 12:59:48;;;;;;;;;;;;;;;;;;7365420;19;1337;-63
2023/08/04 13:02:16;;;;;;;;;;;;;;;;;;7367549;19;815;-64
2023/08/04 13:04:44;;;;;;;;;;;;;;;;;;7367245;19;803;-66
2023/08/04 13:07:12;;;;;;;;;;;;;;;;;;7366075;19;1857;-66
2023/08/04 13:09:41;;;;;;;;;;;;;;;;;;7364146;19;1373;-67
2023/08/04 13:12:09;;;;;;;;;;;;;;;;;;7367245;19;890;-67
2023/08/04 13:14:37;;;;;;;;;;;;;;;;;;7366873;19;804;-67
2023/08/04 13:17:05;;;;;;;;;;;;;;;;;;7366742;19;845;-67
2023/08/04 13:19:34;;;;;;;;;;;;;;;;;;7365284;19;1454;-67
2023/08/04 13:22:03;;;;;;;;;;;;;;;;;;7367710;19;795;-67
2023/08/04 13:24:31;;;;;;;;;;;;;;;;;;7367607;19;766;-67
2023/08/04 13:27:00;;;;;;;;;;;;;;;;;;7366015;19;1833;-67
2023/08/04 13:29:28;;;;;;;;;;;;;;;;;;7366091;19;1607;-68
2023/08/04 13:31:56;;;;;;;;;;;;;;;;;;7369359;19;1684;-68
2023/08/04 13:34:24;;;;;;;;;;;;;;;;;;7370621;19;1241;-67
2023/08/04 13:36:52;;;;;;;;;;;;;;;;;;7368125;19;1561;-67
2023/08/04 13:39:20;;;;;;;;;;;;;;;;;;7368599;19;1515;-67
2023/08/04 13:41:49;;;;;;;;;;;;;;;;;;7366874;19;1503;-66
2023/08/04 13:44:17;;;;;;;;;;;;;;;;;;7370812;19;1325;-67
2023/08/04 13:46:45;;;;;;;;;;;;;;;;;;7369084;19;1837;-66
2023/08/04 13:49:13;;;;;;;;;;;;;;;;;;7367643;19;1734;-66
2023/08/04 13:51:41;;;;;;;;;;;;;;;;;;7372782;19;1529;-66
2023/08/04 13:54:09;;;;;;;;;;;;;;;;;;7371565;19;1890;-67
2023/08/04 13:56:38;;;;;;;;;;;;;;;;;;7379156;19;1436;-67
2023/08/04 13:59:06;;;;;;;;;;;;;;;;;;7376418;19;2008;-65
2023/08/04 14:01:34;;;;;;;;;;;;;;;;;;7378124;19;1663;-66
2023/08/04 14:04:02;;;;;;;;;;;;;;;;;;7376651;19;736;-66
2023/08/04 14:06:34;;;;;;;;;;;;;;;;;;7377077;19;862;-69
2023/08/04 14:09:02;;;;;;;;;;;;;;;;;;7373405;19;1826;-64
2023/08/04 14:11:30;;;;;;;;;;;;;;;;;;7375952;19;1560;-64
2023/08/04 14:13:58;;;;;;;;;;;;;;;;;;7377723;19;1463;-64
2023/08/04 14:16:26;;;;;;;;;;;;;;;;;;7375792;19;875;-63
2023/08/04 14:18:54;;;;;;;;;;;;;;;;;;7377961;19;1817;-64
2023/08/04 14:21:23;;;;;;;;;;;;;;;;;;7377120;19;1722;-64
2023/08/04 14:23:51;;;;;;;;;;;;;;;;;;7378224;19;1667;-65
2023/08/04 14:26:19;;;;;;;;;;;;;;;;;;7374433;19;741;-66
2023/08/04 14:28:47;;;;;;;;;;;;;;;;;;7373731;19;1850;-65
2023/08/04 14:31:15;;;;;;;;;;;;;;;;;;7373207;19;1661;-65
2023/08/04 14:33:43;;;;;;;;;;;;;;;;;;7373710;19;1938;-65
2023/08/04 14:36:11;;;;;;;;;;;;;;;;;;7376002;19;1413;-65
2023/08/04 14:38:40;;;;;;;;;;;;;;;;;;7370917;19;807;-66
2023/08/04 14:41:08;;;;;;;;;;;;;;;;;;7375788;19;2027;-65
2023/08/04 14:43:36;;;;;;;;;;;;;;;;;;7373181;19;837;-66
2023/08/04 14:46:04;;;;;;;;;;;;;;;;;;7374039;19;2008;-65
2023/08/04 14:48:32;;;;;;;;;;;;;;;;;;7373775;19;1857;-65
2023/08/04 14:51:00;;;;;;;;;;;;;;;;;;7370915;19;1302;-65
2023/08/04 14:53:29;;;;;;;;;;;;;;;;;;7372866;19;1673;-65
2023/08/04 14:55:57;;;;;;;;;;;;;;;;;;7375157;19;1821;-65
2023/08/04 14:58:25;;;;;;;;;;;;;;;;;;7373393;19;1870;-64
2023/08/04 15:00:53;;;;;;;;;;;;;;;;;;7371818;19;1319;-64
2023/08/04 15:03:21;;;;;;;;;;;;;;;;;;7373850;19;1472;-65
2023/08/04 15:05:50;;;;;;;;;;;;;;;;;;7368473;19;846;-65
2023/08/04 15:08:18;;;;;;;;;;;;;;;;;;7368751;19;1853;-65
2023/08/04 15:10:46;;;;;;;;;;;;;;;;;;7371271;19;1745;-65
2023/08/04 15:13:14;;;;;;;;;;;;;;;;;;7372121;19;1995;-61
2023/08/04 15:15:42;;;;;;;;;;;;;;;;;;7374333;19;1563;-64
2023/08/04 15:18:10;;;;;;;;;;;;;;;;;;7373436;19;1496;-64
2023/08/04 15:20:38;;;;;;;;;;;;;;;;;;7370289;19;1990;-64
2023/08/04 15:23:07;;;;;;;;;;;;;;;;;;7373180;19;1671;-64
2023/08/04 15:25:35;;;;;;;;;;;;;;;;;;7372989;19;1805;-63
2023/08/04 15:28:03;;;;;;;;;;;;;;;;;;7372388;19;1847;-64
2023/08/04 15:30:31;;;;;;;;;;;;;;;;;;7372932;19;1853;-64
2023/08/04 15:32:59;;;;;;;;;;;;;;;;;;7370852;19;839;-61
2023/08/04 15:35:27;;;;;;;;;;;;;;;;;;7373644;19;1777;-62
2023/08/04 15:37:55;;;;;;;;;;;;;;;;;;7374016;19;1456;-60
2023/08/04 15:40:24;;;;;;;;;;;;;;;;;;7370826;19;1977;-63
2023/08/04 15:42:52;;;;;;;;;;;;;;;;;;7373683;19;1433;-61
2023/08/04 15:45:20;;;;;;;;;;;;;;;;;;7370759;19;799;-63
2023/08/04 15:47:48;;;;;;;;;;;;;;;;;;7369806;19;1849;-62
2023/08/04 15:50:16;;;;;;;;;;;;;;;;;;7368060;19;1630;-63
2023/08/04 15:52:44;;;;;;;;;;;;;;;;;;7372854;19;1642;-62
2023/08/04 15:55:12;;;;;;;;;;;;;;;;;;7368779;19;949;-63
2023/08/04 15:57:41;;;;;;;;;;;;;;;;;;7368713;19;795;-62
2023/08/04 16:00:09;;;;;;;;;;;;;;;;;;7365665;19;1357;-61
2023/08/04 16:02:37;;;;;;;;;;;;;;;;;;7368775;19;1879;-63
2023/08/04 16:05:05;;;;;;;;;;;;;;;;;;7371811;19;1395;-63
2023/08/04 16:07:33;;;;;;;;;;;;;;;;;;7371156;19;1849;-63
2023/08/04 16:10:01;;;;;;;;;;;;;;;;;;7368481;19;1713;-62
2023/08/04 16:12:29;;;;;;;;;;;;;;;;;;7372335;19;1259;-61
2023/08/04 16:14:58;;;;;;;;;;;;;;;;;;7368509;19;787;-61
2023/08/04 16:17:27;;;;;;;;;;;;;;;;;;7368831;19;2109;-62
2023/08/04 16:19:55;;;;;;;;;;;;;;;;;;7367024;19;1841;-63
2023/08/04 16:22:23;;;;;;;;;;;;;;;;;;7371829;19;1638;-63
2023/08/04 16:24:51;;;;;;;;;;;;;;;;;;7368088;19;838;-62
2023/08/04 16:27:19;;;;;;;;;;;;;;;;;;7367136;19;798;-62
2023/08/04 16:29:47;;;;;;;;;;;;;;;;;;7363552;19;1853;-61
2023/08/04 16:32:15;;;;;;;;;;;;;;;;;;7370437;19;1461;-62
2023/08/04 16:34:43;;;;;;;;;;;;;;;;;;7366846;19;757;-62
2023/08/04 16:37:12;;;;;;;;;;;;;;;;;;7367301;19;2087;-60
2023/08/04 16:39:40;;;;;;;;;;;;;;;;;;7368429;19;1825;-62
2023/08/04 16:42:08;;;;;;;;;;;;;;;;;;7369694;19;1870;-60
2023/08/04 16:44:36;;;;;;;;;;;;;;;;;;7369304;19;1460;-59
2023/08/04 16:47:04;;;;;;;;;;;;;;;;;;7366015;19;894;-60
2023/08/04 16:49:32;;;;;;;;;;;;;;;;;;7362742;19;1845;-62
2023/08/04 16:52:00;;;;;;;;;;;;;;;;;;7367879;19;1691;-60
2023/08/04 16:54:29;;;;;;;;;;;;;;;;;;7370842;19;1645;-61
2023/08/04 16:56:57;;;;;;;;;;;;;;;;;;7365186;19;1749;-61
2023/08/04 16:59:25;;;;;;;;;;;;;;;;;;7369050;19;1735;-60
2023/08/04 17:01:53;;;;;;;;;;;;;;;;;;7368884;19;2095;-61
2023/08/04 17:04:21;;;;;;;;;;;;;;;;;;7369199;19;1807;-60
2023/08/04 17:06:49;;;;;;;;;;;;;;;;;;7367254;19;1255;-61
2023/08/04 17:09:18;;;;;;;;;;;;;;;;;;7362603;19;1855;-61
2023/08/04 17:11:46;;;;;;;;;;;;;;;;;;7368113;19;2056;-61